Time;durP1;ratioP1;P1;durP2;ratioP2;P2;SDS_P1;SDS_P2;PMS_P1;PMS_P2;Temp;Humidity;BMP_temperature;BMP_pressure;BME280_temperature;BME280_humidity;BME280_pressure;Samples;Min_cycle;Max_cycle;Signal;HPM_P1;HPM_P2
2022/04/06 00:00:25;;;;;;;9.63;4.53;;;;;;;2.51;100.00;99461.41;4995474;28;20030;-91
2022/04/06 00:02:51;;;;;;;11.43;6.25;;;;;;;2.61;100.00;99461.41;4979012;28;20123;-91
2022/04/06 00:05:16;;;;;;;12.40;5.30;;;;;;;2.62;100.00;99463.91;4995157;28;20026;-92
2022/04/06 00:07:43;;;;;;;14.40;6.67;;;;;;;2.55;100.00;99449.59;4998657;28;20087;-90
2022/04/06 00:10:08;;;;;;;;;;;;;;;2.62;100.00;99460.41;4983976;28;20109;-91
2022/04/06 00:12:35;;;;;;;10.23;4.63;;;;;;;2.37;100.00;99428.44;4994325;28;20415;-92
2022/04/06 00:15:02;;;;;;;10.60;5.80;;;;;;;2.52;100.00;99450.72;4995084;28;20064;-91
2022/04/06 00:17:27;;;;;;;10.60;5.20;;;;;;;2.53;100.00;99441.88;4979150;28;20022;-91
2022/04/06 00:19:53;;;;;;;9.63;5.68;;;;;;;2.58;100.00;99438.78;4981721;28;20107;-91
2022/04/06 00:22:19;;;;;;;9.05;4.72;;;;;;;2.50;100.00;99425.50;5018668;28;20026;-93
2022/04/06 00:24:45;;;;;;;10.32;5.03;;;;;;;2.33;100.00;99417.34;5009535;28;20049;-91
2022/04/06 00:27:10;;;;;;;13.15;6.20;;;;;;;2.51;100.00;99435.91;4994934;28;20044;-91
2022/04/06 00:29:36;;;;;;;13.83;5.57;;;;;;;2.69;100.00;99427.22;4978771;28;20164;-91
2022/04/06 00:32:02;;;;;;;9.75;4.85;;;;;;;2.45;100.00;99407.47;4995056;28;20034;-91
2022/04/06 00:37:11;;;;;;;10.95;5.88;;;;;;;2.53;100.00;99417.31;4996080;28;20061;-94
2022/04/06 00:39:37;;;;;;;10.93;5.10;;;;;;;2.42;100.00;99402.50;4962292;28;20521;-94
2022/04/06 00:42:03;;;;;;;12.88;5.45;;;;;;;2.41;100.00;99405.28;4982238;28;20038;-93
2022/04/06 00:44:28;;;;;;;;;;;;;;;2.37;100.00;99415.28;4962066;28;20122;-93
2022/04/06 00:46:54;;;;;;;10.70;5.00;;;;;;;2.43;100.00;99409.41;4986225;28;20008;-94
2022/04/06 00:49:20;;;;;;;9.80;5.38;;;;;;;2.48;100.00;99417.75;4983754;28;20026;-94
2022/04/06 00:51:47;;;;;;;10.18;5.00;;;;;;;2.33;100.00;99390.19;4981021;28;20046;-94
2022/04/06 00:54:18;;;;;;;10.38;4.90;;;;;;;2.46;100.00;99403.88;4981253;28;20072;-92
2022/04/06 00:56:46;;;;;;;12.65;5.10;;;;;;;2.50;100.00;99402.59;4980768;28;20095;-91
2022/04/06 00:59:12;;;;;;;16.95;5.22;;;;;;;2.44;100.00;99403.19;4981839;28;20084;-91
2022/04/06 01:01:37;;;;;;;;;;;;;;;2.43;100.00;99404.16;4980012;28;20048;-92
2022/04/06 01:04:03;;;;;;;12.68;5.47;;;;;;;2.42;100.00;99394.59;4995833;28;20007;-92
2022/04/06 01:06:29;;;;;;;11.55;5.63;;;;;;;2.40;100.00;99391.28;5006006;23;20056;-81
2022/04/06 01:08:55;;;;;;;13.75;6.03;;;;;;;2.48;100.00;99388.78;5012647;28;20041;-85
2022/04/06 01:11:21;;;;;;;14.55;5.45;;;;;;;2.45;100.00;99391.66;5012408;28;20028;-85
2022/04/06 01:13:47;;;;;;;11.13;5.28;;;;;;;2.42;100.00;99381.44;5012760;28;20132;-85
2022/04/06 01:16:13;;;;;;;9.52;5.18;;;;;;;2.49;100.00;99381.69;4996730;28;20013;-84
2022/04/06 01:18:40;;;;;;;10.80;6.32;;;;;;;2.46;100.00;99389.88;5012796;28;20044;-85
2022/04/06 01:21:06;;;;;;;14.15;6.15;;;;;;;2.47;100.00;99387.09;4995577;28;20489;-87
2022/04/06 01:23:31;;;;;;;9.77;4.87;;;;;;;2.58;100.00;99380.00;4996583;28;20032;-86
2022/04/06 01:25:56;;;;;;;10.10;5.20;;;;;;;2.41;100.00;99377.16;5012823;28;20300;-86
2022/04/06 01:28:22;;;;;;;11.37;5.60;;;;;;;2.46;100.00;99380.19;4996677;28;20114;-86
2022/04/06 01:30:47;;;;;;;14.77;6.17;;;;;;;2.52;100.00;99382.22;5028836;28;20029;-87
2022/04/06 01:33:13;;;;;;;10.00;5.90;;;;;;;2.47;100.00;99384.47;5029095;28;20086;-85
2022/04/06 01:35:41;;;;;;;11.95;5.97;;;;;;;2.43;100.00;99388.34;5012748;28;20045;-85
2022/04/06 01:38:06;;;;;;;17.75;6.72;;;;;;;2.43;100.00;99377.81;5012790;28;20033;-87
2022/04/06 01:40:33;;;;;;;10.88;5.32;;;;;;;2.50;100.00;99381.53;5012951;28;20033;-87
2022/04/06 01:42:58;;;;;;;;;;;;;;;2.51;100.00;99380.56;5030875;28;20041;-86
2022/04/06 01:45:24;;;;;;;12.43;5.28;;;;;;;2.49;100.00;99379.88;5012825;28;19913;-82
2022/04/06 01:47:49;;;;;;;13.02;5.97;;;;;;;2.45;100.00;99375.88;5012437;28;20037;-86
2022/04/06 01:52:58;;;;;;;12.52;5.57;;;;;;;2.59;100.00;99392.19;5032112;28;20041;-85
2022/04/06 01:55:24;;;;;;;11.55;5.32;;;;;;;2.62;100.00;99397.16;5032225;28;20036;-85
2022/04/06 01:57:49;;;;;;;11.75;5.75;;;;;;;2.62;100.00;99402.44;5015979;28;20488;-86
2022/04/06 02:00:18;;;;;;;14.18;5.85;;;;;;;2.68;100.00;99389.50;5015937;28;20024;-85
2022/04/06 02:02:52;;;;;;;15.45;5.60;;;;;;;2.63;100.00;99390.94;5020766;28;20045;-81
2022/04/06 02:05:18;;;;;;;16.83;7.60;;;;;;;2.58;100.00;99378.19;4995957;28;20048;-85
2022/04/06 02:07:43;;;;;;;;;;;;;;;2.69;100.00;99390.34;5013407;28;20473;-83
2022/04/06 02:10:10;;;;;;;12.57;6.53;;;;;;;2.82;100.00;99398.75;5028987;28;19919;-85
2022/04/06 02:12:37;;;;;;;;;;;;;;;2.81;100.00;99397.09;5030672;28;20036;-85
2022/04/06 02:15:02;;;;;;;15.82;7.20;;;;;;;2.66;100.00;99380.09;5033715;28;19959;-85
2022/04/06 02:17:28;;;;;;;14.05;6.13;;;;;;;2.73;100.00;99387.28;5052689;28;20025;-85
2022/04/06 02:19:54;;;;;;;17.25;6.80;;;;;;;2.77;100.00;99387.81;5031632;28;20037;-85
2022/04/06 02:22:20;;;;;;;14.20;6.93;;;;;;;2.86;100.00;99379.03;5016736;28;20021;-85
2022/04/06 02:24:45;;;;;;;10.85;5.45;;;;;;;3.14;100.00;99392.22;5025221;28;20459;-85
2022/04/06 02:27:11;;;;;;;13.98;6.15;;;;;;;3.21;100.00;99398.56;5059656;28;20056;-86
2022/04/06 02:29:37;;;;;;;12.75;5.68;;;;;;;3.22;100.00;99392.28;5034456;28;20049;-82
2022/04/06 02:32:04;;;;;;;16.60;6.43;;;;;;;3.19;100.00;99386.50;5007664;28;20635;-86
2022/04/06 02:34:30;;;;;;;15.57;6.93;;;;;;;3.17;100.00;99387.47;5018027;28;20057;-85
2022/04/06 02:36:55;;;;;;;14.55;6.07;;;;;;;3.22;100.00;99378.28;5037931;28;20358;-86
2022/04/06 02:39:21;;;;;;;16.35;7.07;;;;;;;3.28;100.00;99383.81;5022092;28;20033;-86
2022/04/06 02:41:46;;;;;;;15.43;6.77;;;;;;;3.37;100.00;99376.78;5034743;28;20025;-84
2022/04/06 02:44:11;;;;;;;14.60;6.53;;;;;;;3.44;100.00;99380.50;5002616;28;20489;-86
2022/04/06 02:46:37;;;;;;;17.73;7.00;;;;;;;3.46;100.00;99383.78;5035730;28;20057;-86
2022/04/06 02:49:02;;;;;;;16.93;7.77;;;;;;;3.48;100.00;99388.94;5021100;28;20039;-86
2022/04/06 02:51:28;;;;;;;15.15;6.30;;;;;;;3.53;100.00;99384.84;5037834;28;20032;-84
2022/04/06 02:53:53;;;;;;;17.20;7.53;;;;;;;3.65;100.00;99390.72;5038627;28;20077;-82
2022/04/06 02:56:18;;;;;;;21.97;8.47;;;;;;;3.67;100.00;99394.06;5014035;28;20059;-84
2022/04/06 02:58:44;;;;;;;21.10;9.83;;;;;;;3.72;100.00;99389.19;5021660;28;20039;-83
2022/04/06 03:01:09;;;;;;;20.67;8.63;;;;;;;3.81;100.00;99397.97;5021772;28;20345;-84
2022/04/06 03:03:35;;;;;;;21.83;9.37;;;;;;;3.85;100.00;99398.50;5019201;28;20037;-85
2022/04/06 03:06:01;;;;;;;23.27;9.03;;;;;;;3.94;100.00;99402.88;5015034;28;20044;-85
2022/04/06 03:08:27;;;;;;;20.70;8.52;;;;;;;4.04;100.00;99411.53;5054080;28;20064;-85
2022/04/06 03:10:52;;;;;;;22.85;10.73;;;;;;;4.11;100.00;99407.31;5021249;28;20863;-85
2022/04/06 03:13:18;;;;;;;22.50;9.00;;;;;;;4.17;100.00;99406.69;5029391;28;20477;-80
2022/04/06 03:15:43;;;;;;;21.48;9.05;;;;;;;4.27;100.00;99405.78;5001397;28;20051;-82
2022/04/06 03:18:09;;;;;;;25.97;11.47;;;;;;;4.33;100.00;99418.34;5051005;28;20538;-85
2022/04/06 03:20:35;;;;;;;29.55;10.02;;;;;;;4.36;100.00;99415.41;5001993;28;20033;-85
2022/04/06 03:23:00;;;;;;;39.80;12.97;;;;;;;4.41;100.00;99411.31;5017201;28;20393;-85
2022/04/06 03:25:25;;;;;;;28.73;11.50;;;;;;;4.57;100.00;99429.09;5016129;28;20079;-84
2022/04/06 03:27:51;;;;;;;32.50;12.50;;;;;;;4.66;100.00;99419.41;5033462;28;20033;-83
2022/04/06 03:30:16;;;;;;;26.13;11.40;;;;;;;4.82;100.00;99423.94;5024427;28;20053;-85
2022/04/06 03:32:42;;;;;;;29.97;11.13;;;;;;;4.92;100.00;99443.16;5011544;28;20025;-84
2022/04/06 03:35:08;;;;;;;32.10;12.85;;;;;;;5.00;100.00;99429.13;5053833;28;20136;-84
2022/04/06 03:37:34;;;;;;;29.85;12.40;;;;;;;5.05;100.00;99432.97;5012304;28;20048;-81
2022/04/06 03:39:59;;;;;;;34.25;12.48;;;;;;;5.13;100.00;99440.13;5005946;28;20037;-84
2022/04/06 03:42:25;;;;;;;28.13;11.75;;;;;;;5.17;100.00;99446.72;4998063;28;20033;-83
2022/04/06 03:44:50;;;;;;;19.53;8.03;;;;;;;5.28;100.00;99450.91;5017256;28;20033;-83
2022/04/06 03:47:16;;;;;;;21.13;8.30;;;;;;;5.45;100.00;99455.25;5001247;28;20315;-82
2022/04/06 03:49:41;;;;;;;17.70;8.73;;;;;;;5.44;100.00;99453.63;5007054;28;20401;-82
2022/04/06 03:52:07;;;;;;;22.70;8.50;;;;;;;5.59;100.00;99458.28;5027925;28;20905;-83
2022/04/06 03:54:33;;;;;;;15.35;7.38;;;;;;;5.66;100.00;99461.94;5000960;28;20029;-78
2022/04/06 03:56:58;;;;;;;22.40;9.33;;;;;;;5.70;100.00;99471.22;5004740;28;20036;-79
2022/04/06 03:59:24;;;;;;;15.73;7.97;;;;;;;5.69;100.00;99466.94;5031757;28;20125;-78
2022/04/06 04:01:49;;;;;;;22.00;7.53;;;;;;;5.74;100.00;99469.91;5014951;28;20527;-82
2022/04/06 04:04:14;;;;;;;17.23;6.40;;;;;;;5.75;100.00;99465.44;5015717;28;20491;-82
2022/04/06 04:06:40;;;;;;;15.90;7.30;;;;;;;5.79;100.00;99475.56;5014946;28;20079;-82
2022/04/06 04:09:06;;;;;;;16.52;7.20;;;;;;;5.79;100.00;99483.50;5015482;28;20048;-82
2022/04/06 04:11:31;;;;;;;16.20;7.15;;;;;;;5.85;100.00;99485.50;5023871;28;20480;-83
2022/04/06 04:13:57;;;;;;;15.23;7.50;;;;;;;5.89;100.00;99493.94;5013709;28;20044;-82
2022/04/06 04:16:23;;;;;;;17.38;8.45;;;;;;;5.91;100.00;99492.78;5002338;28;20029;-82
2022/04/06 04:18:48;;;;;;;;;;;;;;;5.97;100.00;99493.16;5014057;28;20037;-81
2022/04/06 04:23:59;;;;;;;25.35;10.70;;;;;;;5.96;100.00;99496.81;5021295;28;20136;-82
2022/04/06 04:26:25;;;;;;;28.02;12.38;;;;;;;5.95;100.00;99489.81;5014707;28;20021;-84
2022/04/06 04:28:51;;;;;;;25.63;11.43;;;;;;;5.97;100.00;99493.16;5008764;28;20048;-84
2022/04/06 04:31:17;;;;;;;29.55;12.25;;;;;;;5.98;100.00;99490.34;5024631;28;20120;-84
2022/04/06 04:33:42;;;;;;;27.50;12.43;;;;;;;6.01;100.00;99491.84;5013705;28;20061;-83
2022/04/06 04:36:08;;;;;;;33.03;13.90;;;;;;;6.03;100.00;99484.56;5013225;28;20022;-80
2022/04/06 04:38:33;;;;;;;31.55;14.13;;;;;;;6.07;100.00;99496.50;5014849;28;20124;-83
2022/04/06 04:40:59;;;;;;;26.20;14.13;;;;;;;6.10;100.00;99496.16;4997206;28;20477;-84
2022/04/06 04:43:25;;;;;;;26.73;13.13;;;;;;;6.13;100.00;99490.53;5029990;28;20124;-82
2022/04/06 04:45:51;;;;;;;33.63;15.60;;;;;;;6.15;100.00;99498.31;5012812;28;20025;-81
2022/04/06 04:48:16;;;;;;;29.83;13.60;;;;;;;6.18;100.00;99492.69;5013141;28;20048;-83
2022/04/06 04:50:42;;;;;;;26.97;13.13;;;;;;;6.20;100.00;99499.47;5034226;28;20021;-84
2022/04/06 04:53:07;;;;;;;28.53;14.23;;;;;;;6.21;100.00;99487.06;5018992;28;20065;-83
2022/04/06 04:55:33;;;;;;;26.40;10.53;;;;;;;6.25;100.00;99483.91;5014873;28;20036;-81
2022/04/06 04:57:59;;;;;;;27.77;13.48;;;;;;;6.28;100.00;99478.28;5016957;28;20076;-83
2022/04/06 05:00:25;;;;;;;21.85;11.73;;;;;;;6.36;100.00;99463.38;5016069;28;20120;-81
2022/04/06 05:02:50;;;;;;;32.90;13.88;;;;;;;6.36;100.00;99455.41;5010937;28;20037;-84
2022/04/06 05:05:15;;;;;;;23.47;12.17;;;;;;;6.36;100.00;99442.16;5012474;28;20660;-83
2022/04/06 05:07:41;;;;;;;27.80;13.10;;;;;;;6.33;100.00;99433.53;5028388;28;20079;-81
2022/04/06 05:10:08;;;;;;;27.93;13.63;;;;;;;6.34;100.00;99424.59;5027107;28;20154;-85
2022/04/06 05:12:34;;;;;;;31.05;13.48;;;;;;;6.36;100.00;99419.13;5015852;28;20489;-79
2022/04/06 05:14:59;;;;;;;27.63;13.13;;;;;;;6.38;100.00;99411.84;5023179;28;20024;-83
2022/04/06 05:17:25;;;;;;;27.90;13.73;;;;;;;6.42;100.00;99412.34;5021680;28;20045;-82
2022/04/06 05:19:52;;;;;;;34.00;14.13;;;;;;;6.40;100.00;99401.06;5012759;28;20115;-82
2022/04/06 05:22:17;;;;;;;25.58;13.45;;;;;;;6.41;100.00;99392.94;4995586;28;20041;-79
2022/04/06 05:24:43;;;;;;;30.60;14.30;;;;;;;6.44;100.00;99389.97;5023541;28;20039;-80
2022/04/06 05:27:08;;;;;;;31.90;13.70;;;;;;;6.47;100.00;99386.13;5007050;28;20037;-78
2022/04/06 05:29:34;;;;;;;33.20;14.53;;;;;;;6.50;100.00;99377.84;5012726;28;20048;-81
2022/04/06 05:32:00;;;;;;;36.33;15.10;;;;;;;6.52;100.00;99373.19;4995287;28;20036;-82
2022/04/06 05:34:28;;;;;;;35.55;17.45;;;;;;;6.54;100.00;99355.31;5011990;28;20120;-81
2022/04/06 05:36:54;;;;;;;33.95;16.42;;;;;;;6.63;100.00;99348.97;5008777;28;20029;-82
2022/04/06 05:39:19;;;;;;;30.00;15.30;;;;;;;6.66;100.00;99338.00;5010752;28;20504;-81
2022/04/06 05:41:44;;;;;;;35.23;16.00;;;;;;;6.64;100.00;99324.09;5010911;28;20028;-82
2022/04/06 05:44:10;;;;;;;39.50;15.53;;;;;;;6.66;100.00;99321.28;5011446;28;20392;-83
2022/04/06 05:46:35;;;;;;;33.43;17.13;;;;;;;6.62;100.00;99306.69;5022437;28;20033;-83
2022/04/06 05:49:00;;;;;;;36.90;16.27;;;;;;;6.58;100.00;99298.28;5007987;28;20168;-83
2022/04/06 05:51:26;;;;;;;36.87;17.27;;;;;;;6.61;100.00;99281.19;5016486;28;20679;-83
2022/04/06 05:53:51;;;;;;;40.50;16.38;;;;;;;6.62;100.00;99278.34;5014346;28;20148;-80
2022/04/06 05:56:17;;;;;;;44.80;18.90;;;;;;;6.63;100.00;99281.84;5022966;28;20906;-83
2022/04/06 05:58:43;;;;;;;36.57;17.17;;;;;;;6.60;100.00;99267.09;5011111;28;20037;-82
2022/04/06 06:01:08;;;;;;;40.33;17.08;;;;;;;6.60;100.00;99267.09;5023095;28;20040;-78
2022/04/06 06:03:34;;;;;;;37.00;18.13;;;;;;;6.61;100.00;99252.03;5027931;28;20076;-81
2022/04/06 06:06:00;;;;;;;40.92;18.92;;;;;;;6.66;100.00;99249.66;5030960;28;20514;-83
2022/04/06 06:08:26;;;;;;;39.67;18.48;;;;;;;6.64;100.00;99243.72;5023132;28;20060;-82
2022/04/06 06:10:51;;;;;;;42.47;19.33;;;;;;;6.64;100.00;99249.00;5015627;28;20044;-82
2022/04/06 06:13:16;;;;;;;40.87;19.33;;;;;;;6.64;100.00;99241.88;5035938;28;20043;-83
2022/04/06 06:15:42;;;;;;;44.83;19.83;;;;;;;6.66;100.00;99249.66;5014776;28;20025;-82
2022/04/06 06:18:08;;;;;;;40.10;19.70;;;;;;;6.69;100.00;99252.78;5047738;28;20040;-82
2022/04/06 06:20:34;;;;;;;45.08;20.70;;;;;;;6.69;100.00;99236.06;5026236;28;20079;-81
2022/04/06 06:23:00;;;;;;;37.00;17.83;;;;;;;6.70;100.00;99243.84;5034456;28;20051;-82
2022/04/06 06:25:26;;;;;;;43.90;19.50;;;;;;;6.70;100.00;99227.94;5026119;28;20505;-83
2022/04/06 06:27:52;;;;;;;43.40;21.13;;;;;;;6.76;100.00;99231.69;5021391;28;20497;-83
2022/04/06 06:30:18;;;;;;;41.85;19.17;;;;;;;6.74;100.00;99213.34;5014983;28;20072;-82
2022/04/06 06:32:44;;;;;;;39.17;20.60;;;;;;;6.82;100.00;99219.59;5014110;28;20045;-79
2022/04/06 06:35:09;;;;;;;41.92;19.63;;;;;;;6.82;100.00;99201.84;5034724;28;20389;-82
2022/04/06 06:37:35;;;;;;;46.47;21.53;;;;;;;6.84;100.00;99204.31;5014757;28;20047;-83
2022/04/06 06:40:01;;;;;;;43.40;20.65;;;;;;;6.85;100.00;99196.16;5014802;28;20246;-82
2022/04/06 06:42:26;;;;;;;41.17;20.95;;;;;;;6.84;100.00;99183.91;5022368;28;20049;-81
2022/04/06 06:44:52;;;;;;;45.07;20.53;;;;;;;6.84;100.00;99175.97;4998087;28;20717;-84
2022/04/06 06:47:17;;;;;;;43.30;20.73;;;;;;;6.91;100.00;99174.25;5022508;28;20025;-81
2022/04/06 06:49:46;;;;;;;44.63;22.20;;;;;;;6.95;100.00;99178.22;5030687;28;20034;-80
2022/04/06 06:52:15;;;;;;;40.83;20.70;;;;;;;6.98;100.00;99164.56;5014183;28;20056;-83
2022/04/06 06:54:40;;;;;;;47.30;20.35;;;;;;;6.99;100.00;99160.09;5038550;28;20086;-83
2022/04/06 06:57:06;;;;;;;40.37;19.13;;;;;;;7.02;100.00;99140.31;5033730;28;20659;-83
2022/04/06 06:59:31;;;;;;;35.20;17.58;;;;;;;7.03;100.00;99126.06;5006553;28;20280;-82
2022/04/06 07:01:57;;;;;;;40.63;19.97;;;;;;;6.98;100.00;99118.66;5013955;28;20799;-83
2022/04/06 07:04:22;;;;;;;36.07;17.33;;;;;;;7.05;100.00;99121.41;5014796;28;20882;-83
2022/04/06 07:06:49;;;;;;;40.87;18.13;;;;;;;7.01;100.00;99107.66;5043097;23;20398;-90
2022/04/06 07:09:16;;;;;;;36.35;17.83;;;;;;;7.05;100.00;99105.50;4999194;28;20112;-89
2022/04/06 07:11:41;;;;;;;;;;;;;;;7.05;100.00;99103.66;4999403;28;20549;-89
2022/04/06 07:14:07;;;;;;;40.05;18.20;;;;;;;7.10;100.00;99098.63;4992466;28;20039;-89
2022/04/06 07:16:32;;;;;;;48.83;20.07;;;;;;;7.00;100.00;99097.22;4979579;28;20042;-89
2022/04/06 07:18:57;;;;;;;32.50;17.57;;;;;;;6.97;100.00;99093.09;4980574;28;20037;-92
2022/04/06 07:21:23;;;;;;;32.67;18.57;;;;;;;7.03;100.00;99095.06;4995755;28;20489;-91
2022/04/06 07:23:48;;;;;;;39.17;17.10;;;;;;;7.02;100.00;99093.38;5012555;28;20429;-92
2022/04/06 07:26:16;;;;;;;32.90;17.90;;;;;;;6.93;100.00;99078.53;4979332;28;20034;-90
2022/04/06 07:28:45;;;;;;;33.83;17.42;;;;;;;7.01;100.00;99096.22;4979234;28;20022;-89
2022/04/06 07:31:13;;;;;;;34.55;17.10;;;;;;;7.03;100.00;99094.22;4979273;28;20038;-89
2022/04/06 07:33:40;;;;;;;35.35;16.98;;;;;;;7.01;100.00;99091.75;4979452;28;20030;-90
2022/04/06 07:36:06;;;;;;;;;;;;;;;7.03;100.00;99083.63;4973199;28;20038;-90
2022/04/06 07:38:31;;;;;;;;;;;;;;;7.08;100.00;99103.28;4970168;28;20013;-90
2022/04/06 07:40:56;;;;;;;;;;;;;;;6.98;100.00;99081.50;4990389;28;19914;-89
2022/04/06 07:43:22;;;;;;;28.83;16.77;;;;;;;6.94;100.00;99067.75;4975880;28;19975;-88
2022/04/06 07:45:47;;;;;;;30.80;15.23;;;;;;;6.98;100.00;99086.81;4975492;28;20751;-89
2022/04/06 07:48:13;;;;;;;36.47;15.37;;;;;;;6.95;100.00;99068.56;4991986;28;20026;-90
2022/04/06 07:50:38;;;;;;;34.13;16.37;;;;;;;6.96;100.00;99071.06;4975455;28;20034;-90
2022/04/06 07:53:04;;;;;;;32.47;18.30;;;;;;;6.97;100.00;99074.53;4975510;28;20041;-90
2022/04/06 07:55:29;;;;;;;37.43;17.20;;;;;;;6.97;100.00;99080.66;4976994;28;20416;-90
2022/04/06 07:57:55;;;;;;;27.80;15.70;;;;;;;6.97;100.00;99085.16;4978225;28;20362;-89
2022/04/06 08:00:20;;;;;;;31.27;16.07;;;;;;;6.98;100.00;99089.47;4970532;28;20033;-90
2022/04/06 08:02:47;;;;;;;35.13;15.43;;;;;;;7.01;100.00;99097.06;4966812;28;20041;-90
2022/04/06 08:05:13;;;;;;;33.58;16.90;;;;;;;7.03;100.00;99094.22;4975413;28;20037;-89
2022/04/06 08:07:43;;;;;;;34.28;16.98;;;;;;;7.02;100.00;99103.19;4975139;28;20026;-91
2022/04/06 08:10:14;;;;;;;35.22;17.25;;;;;;;7.11;100.00;99115.38;4975555;28;20514;-90
2022/04/06 08:12:41;;;;;;;31.23;16.58;;;;;;;7.12;100.00;99120.50;4978675;28;20038;-90
2022/04/06 08:15:08;;;;;;;34.10;16.65;;;;;;;7.18;100.00;99118.94;4986688;28;20112;-89
2022/04/06 08:17:36;;;;;;;32.50;17.40;;;;;;;7.13;100.00;99114.19;4970161;28;20046;-90
2022/04/06 08:20:03;;;;;;;33.40;14.75;;;;;;;7.25;100.00;99117.22;4970766;28;20462;-90
2022/04/06 08:22:29;;;;;;;35.08;16.17;;;;;;;7.31;100.00;99131.63;4970285;28;20030;-90
2022/04/06 08:24:55;;;;;;;33.90;14.90;;;;;;;7.30;100.00;99119.34;4970939;28;20021;-91
2022/04/06 08:27:20;;;;;;;31.27;14.80;;;;;;;7.29;100.00;99125.66;4970389;28;20052;-90
2022/04/06 08:29:45;;;;;;;28.57;15.70;;;;;;;7.27;100.00;99117.06;4978734;28;20034;-91
2022/04/06 08:32:11;;;;;;;28.37;13.93;;;;;;;7.26;100.00;99108.28;4978290;28;20397;-90
2022/04/06 08:34:36;;;;;;;26.93;14.63;;;;;;;7.23;100.00;99108.63;4969455;28;20072;-90
2022/04/06 08:37:02;;;;;;;38.37;15.07;;;;;;;7.25;100.00;99114.56;4972503;28;20034;-90
2022/04/06 08:39:28;;;;;;;28.75;14.68;;;;;;;7.20;100.00;99130.22;4976589;28;20029;-89
2022/04/06 08:41:55;;;;;;;29.03;14.83;;;;;;;7.25;100.00;99111.91;4978238;28;20088;-91
2022/04/06 08:44:20;;;;;;;29.88;15.15;;;;;;;7.26;100.00;99115.38;4977990;28;20030;-91
2022/04/06 08:46:50;;;;;;;25.73;14.68;;;;;;;7.43;100.00;99132.00;4978218;28;20040;-90
2022/04/06 08:49:16;;;;;;;29.73;13.77;;;;;;;7.45;100.00;99125.50;4978144;28;20064;-89
2022/04/06 08:51:44;;;;;;;24.13;12.63;;;;;;;7.44;100.00;99107.91;4990702;28;20478;-90
2022/04/06 08:54:10;;;;;;;24.45;12.02;;;;;;;7.51;100.00;99108.81;4974674;28;20514;-89
2022/04/06 08:56:35;;;;;;;20.92;12.70;;;;;;;7.66;100.00;99105.38;4979824;28;20014;-90
2022/04/06 08:59:01;;;;;;;26.80;12.80;;;;;;;7.65;100.00;99104.53;5001004;28;20030;-91
2022/04/06 09:01:31;;;;;;;20.92;10.98;;;;;;;7.66;100.00;99094.75;4977093;28;20401;-90
2022/04/06 09:03:59;;;;;;;21.48;11.00;;;;;;;7.60;100.00;99075.84;4969922;28;20405;-89
2022/04/06 09:06:26;;;;;;;20.33;11.55;;;;;;;7.71;100.00;99073.75;4969597;28;20030;-89
2022/04/06 09:08:51;;;;;;;21.33;11.35;;;;;;;7.69;100.00;99055.34;4977155;28;20037;-90
2022/04/06 09:11:18;;;;;;;22.20;11.13;;;;;;;7.74;100.00;99071.53;4981632;28;20893;-89
2022/04/06 09:13:46;;;;;;;22.15;11.30;;;;;;;7.66;100.00;99058.38;4975359;28;20483;-90
2022/04/06 09:16:16;;;;;;;15.48;9.98;;;;;;;7.67;100.00;99069.81;4974258;28;20037;-89
2022/04/06 09:18:44;;;;;;;15.32;10.00;;;;;;;7.73;100.00;99059.28;4974571;28;20038;-89
2022/04/06 09:21:12;;;;;;;17.08;8.77;;;;;;;7.70;100.00;99051.69;4974173;28;20029;-89
2022/04/06 09:23:38;;;;;;;15.80;9.30;;;;;;;7.69;100.00;99042.06;4969761;28;20334;-90
2022/04/06 09:26:08;;;;;;;16.75;9.18;;;;;;;7.81;100.00;99050.38;4981317;28;20744;-88
2022/04/06 09:28:38;;;;;;;15.80;8.75;;;;;;;7.70;100.00;99042.88;4969374;28;20038;-89
2022/04/06 09:31:03;;;;;;;17.58;7.35;;;;;;;7.88;100.00;99061.09;4985584;28;20057;-88
2022/04/06 09:33:29;;;;;;;13.93;8.60;;;;;;;7.95;100.00;99065.47;4969381;28;20119;-89
2022/04/06 09:35:57;;;;;;;15.40;8.82;;;;;;;8.00;100.00;99047.13;4977244;28;20501;-88
2022/04/06 09:38:31;;;;;;;12.77;8.52;;;;;;;7.92;100.00;99049.91;4977131;28;20041;-90
2022/04/06 09:41:04;;;;;;;12.18;7.45;;;;;;;7.97;100.00;99049.34;4977284;28;20482;-91
2022/04/06 09:43:31;;;;;;;13.88;7.40;;;;;;;7.85;100.00;99035.72;4977077;28;20042;-90
2022/04/06 09:49:00;;;;;;;11.75;7.18;;;;;;;7.90;100.00;99040.47;5008079;28;20042;-88
2022/04/06 09:51:26;;;;;;;11.25;7.13;;;;;;;7.94;100.00;99029.28;4988052;28;20029;-89
2022/04/06 09:53:53;;;;;;;8.77;6.57;;;;;;;7.92;100.00;99023.31;4979353;28;20049;-88
2022/04/06 09:56:19;;;;;;;10.70;6.20;;;;;;;7.82;100.00;99022.81;4961817;28;20371;-89
2022/04/06 09:58:46;;;;;;;10.00;6.88;;;;;;;7.99;100.00;99040.16;4968680;28;20034;-88
2022/04/06 10:01:15;;;;;;;7.97;5.57;;;;;;;7.89;100.00;99044.97;4977347;28;20041;-88
2022/04/06 10:03:47;;;;;;;9.80;5.35;;;;;;;7.90;100.00;99024.53;4996751;28;20046;-88
2022/04/06 10:06:12;;;;;;;12.75;6.20;;;;;;;7.82;100.00;99036.09;4965237;28;20088;-88
2022/04/06 10:08:41;;;;;;;11.60;6.53;;;;;;;7.84;100.00;99023.44;4985062;28;20026;-89
2022/04/06 10:11:06;;;;;;;9.40;5.40;;;;;;;7.85;100.00;99025.09;4961162;28;20072;-89
2022/04/06 10:13:33;;;;;;;6.80;4.72;;;;;;;7.84;100.00;99018.09;4993412;28;20906;-88
2022/04/06 10:15:58;;;;;;;9.90;5.13;;;;;;;7.79;100.00;99012.53;4961244;28;20093;-89
2022/04/06 10:18:26;;;;;;;10.00;5.17;;;;;;;7.96;100.00;99021.94;4977119;28;20031;-89
2022/04/06 10:21:10;;;;;;;9.65;6.13;;;;;;;7.93;100.00;99009.03;4961311;28;20892;-89
2022/04/06 10:24:06;;;;;;;9.18;5.30;;;;;;;7.91;100.00;99011.03;4979693;28;20038;-88
2022/04/06 10:26:50;;;;;;;6.20;4.47;;;;;;;7.98;100.00;99008.47;4979931;28;20469;-88
2022/04/06 10:29:15;;;;;;;7.32;4.15;;;;;;;7.99;100.00;99015.44;4988500;28;20046;-88
2022/04/06 10:31:41;;;;;;;6.13;4.17;;;;;;;7.80;100.00;99012.38;4977098;28;20034;-88
2022/04/06 10:34:31;;;;;;;7.93;4.83;;;;;;;7.87;100.00;98996.50;4992974;28;20042;-89
2022/04/06 10:37:13;;;;;;;7.82;4.45;;;;;;;7.96;100.00;99008.66;4986612;28;20521;-88
2022/04/06 10:39:51;;;;;;;6.43;4.25;;;;;;;8.05;100.00;99009.34;5004717;28;20026;-88
2022/04/06 10:42:28;;;;;;;4.75;3.83;;;;;;;8.06;100.00;99002.22;4988055;28;20049;-88
2022/04/06 10:44:55;;;;;;;5.68;3.40;;;;;;;8.03;100.00;99001.59;4986439;28;20042;-88
2022/04/06 10:47:21;;;;;;;;;;;;;;;8.22;100.00;98999.31;4998362;28;20026;-88
2022/04/06 10:50:15;;;;;;;9.75;4.15;;;;;;;8.02;100.00;98999.09;5004471;28;19920;-88
2022/04/06 10:52:42;;;;;;;10.50;4.60;;;;;;;8.23;100.00;99001.75;4995772;28;20038;-88
2022/04/06 10:55:10;;;;;;;9.02;4.57;;;;;;;8.22;100.00;98986.03;4980017;28;20478;-90
2022/04/06 10:58:02;;;;;;;6.28;3.90;;;;;;;8.20;100.00;98991.53;4976501;28;20049;-89
2022/04/06 11:00:28;;;;;;;6.32;3.75;;;;;;;8.23;100.00;98987.66;4993413;28;20026;-88
2022/04/06 11:02:59;;;;;;;4.38;3.42;;;;;;;8.16;100.00;99000.06;4976707;28;20018;-89
2022/04/06 11:05:49;;;;;;;6.65;3.85;;;;;;;8.09;100.00;99000.00;4977103;28;20042;-87
2022/04/06 11:11:47;;;;;;;7.95;4.07;;;;;;;8.02;100.00;99004.41;5011379;28;20033;-89
2022/04/06 11:14:27;;;;;;;4.60;3.58;;;;;;;7.97;100.00;98994.34;5013566;28;20030;-89
2022/04/06 11:16:53;;;;;;;7.47;4.30;;;;;;;7.92;100.00;98990.63;4989967;28;20057;-88
2022/04/06 11:19:18;;;;;;;7.60;4.30;;;;;;;7.92;100.00;98994.09;4997276;28;20450;-90
2022/04/06 11:21:49;;;;;;;4.60;3.97;;;;;;;7.79;100.00;98993.94;4985768;28;20052;-88
2022/04/06 11:24:23;;;;;;;8.07;4.47;;;;;;;7.76;100.00;98994.31;4982068;28;20035;-89
2022/04/06 11:26:49;;;;;;;5.93;4.47;;;;;;;7.84;100.00;98991.53;4989170;28;20044;-89
2022/04/06 11:29:14;;;;;;;6.63;3.88;;;;;;;7.92;100.00;99002.06;4964795;28;20062;-90
2022/04/06 11:32:05;;;;;;;7.17;3.97;;;;;;;7.93;100.00;99003.69;4978027;28;20092;-90
2022/04/06 11:34:40;;;;;;;3.90;3.40;;;;;;;7.98;100.00;98993.34;4980831;28;20069;-89
2022/04/06 11:37:09;;;;;;;6.90;3.42;;;;;;;8.01;100.00;99002.78;4975463;28;20041;-89
2022/04/06 11:39:35;;;;;;;7.05;4.25;;;;;;;8.03;100.00;98996.28;4967891;28;20053;-90